sensor_id;sensor_type;location;lat;lon;timestamp;P1;durP1;ratioP1;P2;durP2;ratioP2
7969;SDS011;4030;52.362;9.206;2023-02-01T00:00:10;8.77;;;2.90;;
7969;SDS011;4030;52.362;9.206;2023-02-01T00:02:37;9.20;;;2.67;;
7969;SDS011;4030;52.362;9.206;2023-02-01T00:05:05;10.33;;;3.37;;
7969;SDS011;4030;52.362;9.206;2023-02-01T00:07:33;8.20;;;2.73;;
7969;SDS011;4030;52.362;9.206;2023-02-01T00:10:00;9.87;;;3.13;;
7969;SDS011;4030;52.362;9.206;2023-02-01T00:12:25;9.83;;;3.07;;
7969;SDS011;4030;52.362;9.206;2023-02-01T00:14:51;7.20;;;2.87;;
7969;SDS011;4030;52.362;9.206;2023-02-01T00:17:17;9.00;;;2.73;;
7969;SDS011;4030;52.362;9.206;2023-02-01T00:19:43;9.70;;;2.80;;
7969;SDS011;4030;52.362;9.206;2023-02-01T00:22:09;10.47;;;2.97;;
7969;SDS011;4030;52.362;9.206;2023-02-01T00:24:35;8.93;;;2.90;;
7969;SDS011;4030;52.362;9.206;2023-02-01T00:27:01;10.87;;;3.17;;
7969;SDS011;4030;52.362;9.206;2023-02-01T00:29:27;8.87;;;2.53;;
7969;SDS011;4030;52.362;9.206;2023-02-01T00:31:53;11.43;;;3.00;;
7969;SDS011;4030;52.362;9.206;2023-02-01T00:34:19;8.87;;;2.57;;
7969;SDS011;4030;52.362;9.206;2023-02-01T00:36:46;9.03;;;3.13;;
7969;SDS011;4030;52.362;9.206;2023-02-01T00:39:12;9.77;;;2.97;;
7969;SDS011;4030;52.362;9.206;2023-02-01T00:41:38;8.47;;;3.00;;
7969;SDS011;4030;52.362;9.206;2023-02-01T00:44:05;8.77;;;2.80;;
7969;SDS011;4030;52.362;9.206;2023-02-01T00:46:31;9.47;;;3.30;;
7969;SDS011;4030;52.362;9.206;2023-02-01T00:48:57;10.67;;;3.07;;
7969;SDS011;4030;52.362;9.206;2023-02-01T00:51:24;8.87;;;2.93;;
7969;SDS011;4030;52.362;9.206;2023-02-01T00:53:53;10.53;;;2.90;;
7969;SDS011;4030;52.362;9.206;2023-02-01T00:56:19;7.63;;;2.67;;
7969;SDS011;4030;52.362;9.206;2023-02-01T00:58:45;9.77;;;2.97;;
7969;SDS011;4030;52.362;9.206;2023-02-01T01:01:12;7.03;;;2.80;;
7969;SDS011;4030;52.362;9.206;2023-02-01T01:03:48;9.60;;;3.03;;
7969;SDS011;4030;52.362;9.206;2023-02-01T01:06:19;9.10;;;2.80;;
7969;SDS011;4030;52.362;9.206;2023-02-01T01:08:49;10.33;;;3.30;;
7969;SDS011;4030;52.362;9.206;2023-02-01T01:11:18;10.60;;;2.60;;
7969;SDS011;4030;52.362;9.206;2023-02-01T01:13:49;8.03;;;2.77;;
7969;SDS011;4030;52.362;9.206;2023-02-01T01:16:16;8.93;;;2.77;;
7969;SDS011;4030;52.362;9.206;2023-02-01T01:18:44;9.83;;;2.83;;
7969;SDS011;4030;52.362;9.206;2023-02-01T01:21:11;9.27;;;2.97;;
7969;SDS011;4030;52.362;9.206;2023-02-01T01:23:38;9.50;;;3.10;;
7969;SDS011;4030;52.362;9.206;2023-02-01T01:26:05;8.93;;;2.73;;
7969;SDS011;4030;52.362;9.206;2023-02-01T01:28:37;10.93;;;3.27;;
7969;SDS011;4030;52.362;9.206;2023-02-01T01:31:03;7.80;;;2.70;;
7969;SDS011;4030;52.362;9.206;2023-02-01T01:33:29;8.53;;;2.70;;
7969;SDS011;4030;52.362;9.206;2023-02-01T01:35:55;8.27;;;2.50;;
7969;SDS011;4030;52.362;9.206;2023-02-01T01:38:21;7.40;;;2.73;;
7969;SDS011;4030;52.362;9.206;2023-02-01T01:40:47;7.23;;;2.63;;
7969;SDS011;4030;52.362;9.206;2023-02-01T01:43:15;9.77;;;3.17;;
7969;SDS011;4030;52.362;9.206;2023-02-01T01:45:44;8.07;;;3.03;;
7969;SDS011;4030;52.362;9.206;2023-02-01T01:51:00;6.23;;;2.73;;
7969;SDS011;4030;52.362;9.206;2023-02-01T01:53:36;10.27;;;3.17;;
7969;SDS011;4030;52.362;9.206;2023-02-01T01:56:10;7.53;;;2.53;;
7969;SDS011;4030;52.362;9.206;2023-02-01T01:58:36;9.97;;;2.83;;
7969;SDS011;4030;52.362;9.206;2023-02-01T02:01:02;8.27;;;2.70;;
7969;SDS011;4030;52.362;9.206;2023-02-01T02:06:04;9.80;;;2.50;;
7969;SDS011;4030;52.362;9.206;2023-02-01T02:08:38;10.20;;;2.73;;
7969;SDS011;4030;52.362;9.206;2023-02-01T02:11:04;9.93;;;3.33;;
7969;SDS011;4030;52.362;9.206;2023-02-01T02:13:34;9.70;;;3.07;;
7969;SDS011;4030;52.362;9.206;2023-02-01T02:16:06;9.37;;;2.70;;
7969;SDS011;4030;52.362;9.206;2023-02-01T02:22:23;9.00;;;2.50;;
7969;SDS011;4030;52.362;9.206;2023-02-01T02:25:02;7.93;;;2.83;;
7969;SDS011;4030;52.362;9.206;2023-02-01T02:34:44;8.13;;;2.83;;
7969;SDS011;4030;52.362;9.206;2023-02-01T02:42:47;6.97;;;2.53;;
7969;SDS011;4030;52.362;9.206;2023-02-01T02:48:53;10.30;;;2.73;;
7969;SDS011;4030;52.362;9.206;2023-02-01T02:51:48;10.20;;;3.17;;
7969;SDS011;4030;52.362;9.206;2023-02-01T02:54:43;10.20;;;2.60;;
7969;SDS011;4030;52.362;9.206;2023-02-01T02:57:15;8.40;;;2.37;;
7969;SDS011;4030;52.362;9.206;2023-02-01T03:00:11;9.37;;;2.60;;
7969;SDS011;4030;52.362;9.206;2023-02-01T03:02:59;8.50;;;3.03;;
7969;SDS011;4030;52.362;9.206;2023-02-01T03:05:45;7.37;;;2.67;;
7969;SDS011;4030;52.362;9.206;2023-02-01T03:08:16;7.57;;;2.57;;
7969;SDS011;4030;52.362;9.206;2023-02-01T03:10:59;13.13;;;2.90;;
7969;SDS011;4030;52.362;9.206;2023-02-01T03:16:27;9.60;;;3.10;;
7969;SDS011;4030;52.362;9.206;2023-02-01T03:19:08;10.07;;;2.80;;
7969;SDS011;4030;52.362;9.206;2023-02-01T03:21:44;11.03;;;2.70;;
7969;SDS011;4030;52.362;9.206;2023-02-01T03:26:47;10.07;;;3.00;;
7969;SDS011;4030;52.362;9.206;2023-02-01T03:29:22;9.97;;;2.63;;
7969;SDS011;4030;52.362;9.206;2023-02-01T03:31:55;11.33;;;2.70;;
7969;SDS011;4030;52.362;9.206;2023-02-01T03:34:20;9.93;;;2.83;;
7969;SDS011;4030;52.362;9.206;2023-02-01T03:36:50;9.37;;;2.87;;
7969;SDS011;4030;52.362;9.206;2023-02-01T03:42:13;7.70;;;2.57;;
7969;SDS011;4030;52.362;9.206;2023-02-01T03:44:47;9.87;;;2.60;;
7969;SDS011;4030;52.362;9.206;2023-02-01T03:47:40;8.87;;;2.70;;
7969;SDS011;4030;52.362;9.206;2023-02-01T03:50:12;9.73;;;2.70;;
7969;SDS011;4030;52.362;9.206;2023-02-01T03:52:44;10.53;;;2.80;;
7969;SDS011;4030;52.362;9.206;2023-02-01T03:55:18;11.47;;;3.30;;
7969;SDS011;4030;52.362;9.206;2023-02-01T04:00:36;8.83;;;2.77;;
7969;SDS011;4030;52.362;9.206;2023-02-01T04:03:03;10.30;;;2.83;;
7969;SDS011;4030;52.362;9.206;2023-02-01T04:05:30;8.10;;;2.77;;
7969;SDS011;4030;52.362;9.206;2023-02-01T04:07:57;7.83;;;2.97;;
7969;SDS011;4030;52.362;9.206;2023-02-01T04:10:23;10.27;;;2.90;;
7969;SDS011;4030;52.362;9.206;2023-02-01T04:12:49;10.33;;;2.40;;
7969;SDS011;4030;52.362;9.206;2023-02-01T04:15:15;8.80;;;3.37;;
7969;SDS011;4030;52.362;9.206;2023-02-01T04:17:41;9.97;;;3.17;;
7969;SDS011;4030;52.362;9.206;2023-02-01T04:20:07;12.60;;;2.90;;
7969;SDS011;4030;52.362;9.206;2023-02-01T04:22:34;7.47;;;2.80;;
7969;SDS011;4030;52.362;9.206;2023-02-01T04:25:00;7.63;;;3.07;;
7969;SDS011;4030;52.362;9.206;2023-02-01T04:27:26;8.50;;;2.70;;
7969;SDS011;4030;52.362;9.206;2023-02-01T04:29:52;10.80;;;3.03;;
7969;SDS011;4030;52.362;9.206;2023-02-01T04:32:18;9.90;;;2.77;;
7969;SDS011;4030;52.362;9.206;2023-02-01T04:34:44;9.20;;;3.03;;
7969;SDS011;4030;52.362;9.206;2023-02-01T04:37:10;8.43;;;2.73;;
7969;SDS011;4030;52.362;9.206;2023-02-01T04:39:36;10.67;;;2.93;;
7969;SDS011;4030;52.362;9.206;2023-02-01T04:42:02;8.43;;;2.73;;
7969;SDS011;4030;52.362;9.206;2023-02-01T04:44:28;10.77;;;3.23;;
7969;SDS011;4030;52.362;9.206;2023-02-01T04:46:54;9.30;;;2.90;;
7969;SDS011;4030;52.362;9.206;2023-02-01T04:49:20;7.27;;;2.70;;
7969;SDS011;4030;52.362;9.206;2023-02-01T04:51:46;9.80;;;2.73;;
7969;SDS011;4030;52.362;9.206;2023-02-01T04:54:13;9.37;;;2.90;;
7969;SDS011;4030;52.362;9.206;2023-02-01T04:56:39;8.20;;;2.90;;
7969;SDS011;4030;52.362;9.206;2023-02-01T04:59:05;9.17;;;2.60;;
7969;SDS011;4030;52.362;9.206;2023-02-01T05:01:31;7.87;;;2.40;;
7969;SDS011;4030;52.362;9.206;2023-02-01T05:03:57;8.53;;;2.60;;
7969;SDS011;4030;52.362;9.206;2023-02-01T05:06:23;7.50;;;2.60;;
7969;SDS011;4030;52.362;9.206;2023-02-01T05:08:49;10.23;;;2.70;;
7969;SDS011;4030;52.362;9.206;2023-02-01T05:11:15;5.90;;;2.20;;
7969;SDS011;4030;52.362;9.206;2023-02-01T05:13:59;10.07;;;3.17;;
7969;SDS011;4030;52.362;9.206;2023-02-01T05:16:25;8.33;;;3.00;;
7969;SDS011;4030;52.362;9.206;2023-02-01T05:18:51;5.50;;;2.20;;
7969;SDS011;4030;52.362;9.206;2023-02-01T05:21:17;9.13;;;2.77;;
7969;SDS011;4030;52.362;9.206;2023-02-01T05:23:43;10.13;;;2.93;;
7969;SDS011;4030;52.362;9.206;2023-02-01T05:26:28;8.90;;;3.00;;
7969;SDS011;4030;52.362;9.206;2023-02-01T05:28:53;6.73;;;2.67;;
7969;SDS011;4030;52.362;9.206;2023-02-01T05:31:19;7.67;;;2.73;;
7969;SDS011;4030;52.362;9.206;2023-02-01T05:33:46;5.20;;;2.37;;
7969;SDS011;4030;52.362;9.206;2023-02-01T05:36:11;8.90;;;2.70;;
7969;SDS011;4030;52.362;9.206;2023-02-01T05:38:37;7.33;;;2.67;;
7969;SDS011;4030;52.362;9.206;2023-02-01T05:41:03;6.87;;;2.50;;
7969;SDS011;4030;52.362;9.206;2023-02-01T05:43:29;8.97;;;2.90;;
7969;SDS011;4030;52.362;9.206;2023-02-01T05:45:55;7.70;;;2.90;;
7969;SDS011;4030;52.362;9.206;2023-02-01T05:48:21;7.47;;;2.23;;
7969;SDS011;4030;52.362;9.206;2023-02-01T05:50:48;9.13;;;2.60;;
7969;SDS011;4030;52.362;9.206;2023-02-01T05:53:14;6.63;;;2.50;;
7969;SDS011;4030;52.362;9.206;2023-02-01T05:55:40;9.17;;;2.77;;
7969;SDS011;4030;52.362;9.206;2023-02-01T05:58:07;9.83;;;2.63;;
7969;SDS011;4030;52.362;9.206;2023-02-01T06:00:32;9.07;;;2.63;;
7969;SDS011;4030;52.362;9.206;2023-02-01T06:02:59;7.47;;;2.63;;
7969;SDS011;4030;52.362;9.206;2023-02-01T06:05:24;7.40;;;2.13;;
7969;SDS011;4030;52.362;9.206;2023-02-01T06:07:50;6.80;;;2.30;;
7969;SDS011;4030;52.362;9.206;2023-02-01T06:10:17;8.17;;;2.30;;
7969;SDS011;4030;52.362;9.206;2023-02-01T06:12:43;8.63;;;2.60;;
7969;SDS011;4030;52.362;9.206;2023-02-01T06:15:13;7.07;;;2.30;;
7969;SDS011;4030;52.362;9.206;2023-02-01T06:17:41;7.33;;;2.40;;
7969;SDS011;4030;52.362;9.206;2023-02-01T06:20:08;9.43;;;2.40;;
7969;SDS011;4030;52.362;9.206;2023-02-01T06:22:36;6.43;;;2.47;;
7969;SDS011;4030;52.362;9.206;2023-02-01T06:25:06;6.37;;;2.20;;
7969;SDS011;4030;52.362;9.206;2023-02-01T06:27:34;6.17;;;2.37;;
7969;SDS011;4030;52.362;9.206;2023-02-01T06:30:00;8.03;;;2.90;;
7969;SDS011;4030;52.362;9.206;2023-02-01T06:32:27;7.03;;;2.30;;
7969;SDS011;4030;52.362;9.206;2023-02-01T06:34:53;6.37;;;2.67;;
7969;SDS011;4030;52.362;9.206;2023-02-01T06:37:20;6.47;;;2.30;;
7969;SDS011;4030;52.362;9.206;2023-02-01T06:39:47;7.17;;;2.60;;
7969;SDS011;4030;52.362;9.206;2023-02-01T06:42:14;7.10;;;2.57;;
7969;SDS011;4030;52.362;9.206;2023-02-01T06:44:40;7.37;;;2.67;;
7969;SDS011;4030;52.362;9.206;2023-02-01T06:47:05;8.07;;;2.53;;
7969;SDS011;4030;52.362;9.206;2023-02-01T06:49:31;7.23;;;2.33;;
7969;SDS011;4030;52.362;9.206;2023-02-01T06:51:57;6.97;;;2.23;;
7969;SDS011;4030;52.362;9.206;2023-02-01T06:54:25;7.43;;;2.20;;
7969;SDS011;4030;52.362;9.206;2023-02-01T06:56:51;8.10;;;2.60;;
7969;SDS011;4030;52.362;9.206;2023-02-01T06:59:17;8.00;;;2.70;;
7969;SDS011;4030;52.362;9.206;2023-02-01T07:01:43;5.60;;;2.20;;
7969;SDS011;4030;52.362;9.206;2023-02-01T07:04:12;9.13;;;2.57;;
7969;SDS011;4030;52.362;9.206;2023-02-01T07:06:39;6.90;;;2.53;;
7969;SDS011;4030;52.362;9.206;2023-02-01T07:09:05;7.33;;;2.63;;
7969;SDS011;4030;52.362;9.206;2023-02-01T07:11:31;8.40;;;2.30;;
7969;SDS011;4030;52.362;9.206;2023-02-01T07:13:57;9.30;;;2.63;;
7969;SDS011;4030;52.362;9.206;2023-02-01T07:16:23;7.73;;;2.90;;
7969;SDS011;4030;52.362;9.206;2023-02-01T07:18:50;6.40;;;2.60;;
7969;SDS011;4030;52.362;9.206;2023-02-01T07:21:17;9.33;;;3.00;;
7969;SDS011;4030;52.362;9.206;2023-02-01T07:23:44;8.30;;;2.30;;
7969;SDS011;4030;52.362;9.206;2023-02-01T07:26:11;9.77;;;2.87;;
7969;SDS011;4030;52.362;9.206;2023-02-01T07:28:38;9.13;;;2.80;;
7969;SDS011;4030;52.362;9.206;2023-02-01T07:31:09;6.77;;;2.60;;
7969;SDS011;4030;52.362;9.206;2023-02-01T07:33:40;7.53;;;2.53;;
7969;SDS011;4030;52.362;9.206;2023-02-01T07:36:08;8.57;;;2.80;;
7969;SDS011;4030;52.362;9.206;2023-02-01T07:38:38;8.27;;;2.80;;
7969;SDS011;4030;52.362;9.206;2023-02-01T07:41:04;9.77;;;2.93;;
7969;SDS011;4030;52.362;9.206;2023-02-01T07:43:31;7.80;;;2.67;;
7969;SDS011;4030;52.362;9.206;2023-02-01T07:46:01;9.27;;;2.70;;
7969;SDS011;4030;52.362;9.206;2023-02-01T07:48:28;7.30;;;2.60;;
7969;SDS011;4030;52.362;9.206;2023-02-01T07:50:58;8.70;;;2.43;;
7969;SDS011;4030;52.362;9.206;2023-02-01T07:53:30;6.90;;;2.50;;
7969;SDS011;4030;52.362;9.206;2023-02-01T07:55:58;6.80;;;2.67;;
7969;SDS011;4030;52.362;9.206;2023-02-01T07:58:24;6.80;;;2.60;;
7969;SDS011;4030;52.362;9.206;2023-02-01T08:00:51;8.67;;;2.40;;
7969;SDS011;4030;52.362;9.206;2023-02-01T08:03:36;8.43;;;2.80;;
7969;SDS011;4030;52.362;9.206;2023-02-01T08:06:01;7.13;;;2.33;;
7969;SDS011;4030;52.362;9.206;2023-02-01T08:08:28;7.73;;;2.50;;
7969;SDS011;4030;52.362;9.206;2023-02-01T08:11:00;10.87;;;3.20;;
7969;SDS011;4030;52.362;9.206;2023-02-01T08:13:28;7.97;;;2.57;;
7969;SDS011;4030;52.362;9.206;2023-02-01T08:15:58;10.43;;;2.97;;
7969;SDS011;4030;52.362;9.206;2023-02-01T08:18:25;8.87;;;2.50;;
7969;SDS011;4030;52.362;9.206;2023-02-01T08:20:51;8.97;;;3.03;;
7969;SDS011;4030;52.362;9.206;2023-02-01T08:23:17;10.33;;;2.70;;
7969;SDS011;4030;52.362;9.206;2023-02-01T08:25:43;9.20;;;2.30;;
7969;SDS011;4030;52.362;9.206;2023-02-01T08:28:08;6.73;;;2.10;;
7969;SDS011;4030;52.362;9.206;2023-02-01T08:30:36;8.17;;;2.53;;
7969;SDS011;4030;52.362;9.206;2023-02-01T08:33:03;9.43;;;2.87;;
7969;SDS011;4030;52.362;9.206;2023-02-01T08:35:34;7.67;;;2.73;;
7969;SDS011;4030;52.362;9.206;2023-02-01T08:38:00;9.50;;;3.10;;
7969;SDS011;4030;52.362;9.206;2023-02-01T08:40:26;7.97;;;2.30;;
7969;SDS011;4030;52.362;9.206;2023-02-01T08:42:52;10.10;;;2.70;;
7969;SDS011;4030;52.362;9.206;2023-02-01T08:45:19;9.80;;;2.60;;
7969;SDS011;4030;52.362;9.206;2023-02-01T08:47:51;8.00;;;2.27;;
7969;SDS011;4030;52.362;9.206;2023-02-01T08:50:18;6.10;;;2.20;;
7969;SDS011;4030;52.362;9.206;2023-02-01T08:52:45;6.03;;;2.50;;
7969;SDS011;4030;52.362;9.206;2023-02-01T08:55:11;8.57;;;2.77;;
7969;SDS011;4030;52.362;9.206;2023-02-01T08:57:38;9.03;;;2.50;;
7969;SDS011;4030;52.362;9.206;2023-02-01T09:00:05;7.23;;;2.10;;
7969;SDS011;4030;52.362;9.206;2023-02-01T09:02:33;8.20;;;2.53;;
7969;SDS011;4030;52.362;9.206;2023-02-01T09:04:59;7.93;;;2.43;;
7969;SDS011;4030;52.362;9.206;2023-02-01T09:07:25;8.87;;;2.60;;
7969;SDS011;4030;52.362;9.206;2023-02-01T09:09:51;7.27;;;2.50;;
7969;SDS011;4030;52.362;9.206;2023-02-01T09:12:19;7.47;;;2.57;;
7969;SDS011;4030;52.362;9.206;2023-02-01T09:14:45;7.70;;;2.23;;
7969;SDS011;4030;52.362;9.206;2023-02-01T09:17:11;7.37;;;2.70;;
7969;SDS011;4030;52.362;9.206;2023-02-01T09:19:38;5.90;;;2.47;;
7969;SDS011;4030;52.362;9.206;2023-02-01T09:22:04;8.23;;;2.63;;
7969;SDS011;4030;52.362;9.206;2023-02-01T09:24:30;7.13;;;2.60;;
7969;SDS011;4030;52.362;9.206;2023-02-01T09:26:56;8.50;;;2.50;;
7969;SDS011;4030;52.362;9.206;2023-02-01T09:29:21;7.83;;;2.33;;
7969;SDS011;4030;52.362;9.206;2023-02-01T09:31:47;8.03;;;2.83;;
7969;SDS011;4030;52.362;9.206;2023-02-01T09:34:14;6.50;;;2.57;;
7969;SDS011;4030;52.362;9.206;2023-02-01T09:36:40;6.97;;;3.17;;
7969;SDS011;4030;52.362;9.206;2023-02-01T09:39:06;8.43;;;2.70;;
7969;SDS011;4030;52.362;9.206;2023-02-01T09:41:38;7.30;;;2.50;;
7969;SDS011;4030;52.362;9.206;2023-02-01T09:47:11;8.40;;;2.53;;
7969;SDS011;4030;52.362;9.206;2023-02-01T09:49:45;6.30;;;2.10;;
7969;SDS011;4030;52.362;9.206;2023-02-01T09:52:47;6.67;;;2.63;;
7969;SDS011;4030;52.362;9.206;2023-02-01T10:01:03;9.57;;;2.50;;
7969;SDS011;4030;52.362;9.206;2023-02-01T10:03:38;9.47;;;2.63;;
7969;SDS011;4030;52.362;9.206;2023-02-01T10:09:14;9.17;;;2.57;;
7969;SDS011;4030;52.362;9.206;2023-02-01T10:14:39;8.17;;;2.43;;
7969;SDS011;4030;52.362;9.206;2023-02-01T10:20:12;7.13;;;2.70;;
7969;SDS011;4030;52.362;9.206;2023-02-01T10:26:18;8.63;;;2.40;;
7969;SDS011;4030;52.362;9.206;2023-02-01T10:28:48;7.70;;;2.60;;
7969;SDS011;4030;52.362;9.206;2023-02-01T10:31:17;8.90;;;2.93;;
7969;SDS011;4030;52.362;9.206;2023-02-01T10:33:44;6.83;;;2.70;;
7969;SDS011;4030;52.362;9.206;2023-02-01T10:39:08;7.07;;;2.40;;
7969;SDS011;4030;52.362;9.206;2023-02-01T10:41:38;6.13;;;2.10;;
7969;SDS011;4030;52.362;9.206;2023-02-01T10:44:12;8.17;;;2.63;;
7969;SDS011;4030;52.362;9.206;2023-02-01T10:46:42;6.67;;;2.30;;
7969;SDS011;4030;52.362;9.206;2023-02-01T10:49:11;5.63;;;2.20;;
7969;SDS011;4030;52.362;9.206;2023-02-01T10:51:54;7.07;;;2.20;;
7969;SDS011;4030;52.362;9.206;2023-02-01T10:54:37;9.07;;;2.70;;
7969;SDS011;4030;52.362;9.206;2023-02-01T10:57:08;7.57;;;2.33;;
7969;SDS011;4030;52.362;9.206;2023-02-01T10:59:42;6.47;;;2.10;;
7969;SDS011;4030;52.362;9.206;2023-02-01T11:02:16;4.90;;;1.87;;
7969;SDS011;4030;52.362;9.206;2023-02-01T11:05:00;9.07;;;2.53;;
7969;SDS011;4030;52.362;9.206;2023-02-01T11:07:29;5.03;;;2.10;;
7969;SDS011;4030;52.362;9.206;2023-02-01T11:09:55;5.80;;;1.97;;
7969;SDS011;4030;52.362;9.206;2023-02-01T11:12:35;6.47;;;2.50;;
7969;SDS011;4030;52.362;9.206;2023-02-01T11:17:44;7.60;;;2.13;;
7969;SDS011;4030;52.362;9.206;2023-02-01T11:20:16;6.50;;;2.07;;
7969;SDS011;4030;52.362;9.206;2023-02-01T11:22:55;6.63;;;2.00;;
7969;SDS011;4030;52.362;9.206;2023-02-01T11:25:21;7.30;;;2.07;;
7969;SDS011;4030;52.362;9.206;2023-02-01T11:27:50;5.73;;;2.10;;
7969;SDS011;4030;52.362;9.206;2023-02-01T11:30:31;7.90;;;2.87;;
7969;SDS011;4030;52.362;9.206;2023-02-01T11:33:00;7.33;;;2.13;;
7969;SDS011;4030;52.362;9.206;2023-02-01T11:35:28;5.13;;;2.03;;
7969;SDS011;4030;52.362;9.206;2023-02-01T11:37:55;6.70;;;2.10;;
7969;SDS011;4030;52.362;9.206;2023-02-01T11:40:28;5.57;;;2.10;;
7969;SDS011;4030;52.362;9.206;2023-02-01T11:43:01;5.40;;;2.30;;
7969;SDS011;4030;52.362;9.206;2023-02-01T11:45:59;6.30;;;2.47;;
7969;SDS011;4030;52.362;9.206;2023-02-01T11:48:28;11.07;;;2.50;;
7969;SDS011;4030;52.362;9.206;2023-02-01T11:51:11;5.13;;;1.93;;
7969;SDS011;4030;52.362;9.206;2023-02-01T11:54:08;6.83;;;2.40;;
7969;SDS011;4030;52.362;9.206;2023-02-01T12:14:50;7.47;;;2.67;;
7969;SDS011;4030;52.362;9.206;2023-02-01T12:17:56;5.87;;;2.47;;
7969;SDS011;4030;52.362;9.206;2023-02-01T12:20:46;5.17;;;2.10;;
7969;SDS011;4030;52.362;9.206;2023-02-01T12:32:24;6.40;;;1.90;;
7969;SDS011;4030;52.362;9.206;2023-02-01T12:35:18;6.27;;;1.97;;
7969;SDS011;4030;52.362;9.206;2023-02-01T12:43:58;6.50;;;2.00;;
7969;SDS011;4030;52.362;9.206;2023-02-01T12:46:33;6.87;;;2.00;;
7969;SDS011;4030;52.362;9.206;2023-02-01T12:49:15;9.52;;;1.95;;
7969;SDS011;4030;52.362;9.206;2023-02-01T12:51:50;4.78;;;1.67;;
7969;SDS011;4030;52.362;9.206;2023-02-01T12:54:31;3.20;;;1.50;;
7969;SDS011;4030;52.362;9.206;2023-02-01T12:57:18;4.87;;;1.57;;
7969;SDS011;4030;52.362;9.206;2023-02-01T13:00:02;7.17;;;2.03;;
7969;SDS011;4030;52.362;9.206;2023-02-01T13:02:57;5.33;;;1.80;;
7969;SDS011;4030;52.362;9.206;2023-02-01T13:05:50;5.50;;;1.80;;
7969;SDS011;4030;52.362;9.206;2023-02-01T13:08:25;4.97;;;1.70;;
7969;SDS011;4030;52.362;9.206;2023-02-01T13:11:05;3.00;;;1.50;;
7969;SDS011;4030;52.362;9.206;2023-02-01T13:16:51;2.87;;;1.20;;
7969;SDS011;4030;52.362;9.206;2023-02-01T13:19:40;2.93;;;1.30;;
7969;SDS011;4030;52.362;9.206;2023-02-01T13:22:13;3.70;;;1.50;;
7969;SDS011;4030;52.362;9.206;2023-02-01T13:24:50;4.30;;;1.60;;
7969;SDS011;4030;52.362;9.206;2023-02-01T13:27:22;5.13;;;1.80;;
7969;SDS011;4030;52.362;9.206;2023-02-01T13:30:03;3.47;;;1.50;;
7969;SDS011;4030;52.362;9.206;2023-02-01T13:33:11;3.80;;;1.20;;
7969;SDS011;4030;52.362;9.206;2023-02-01T13:41:52;3.10;;;1.33;;
7969;SDS011;4030;52.362;9.206;2023-02-01T13:44:30;4.67;;;1.57;;
7969;SDS011;4030;52.362;9.206;2023-02-01T13:47:08;2.33;;;1.27;;
7969;SDS011;4030;52.362;9.206;2023-02-01T13:49:58;2.90;;;1.10;;
7969;SDS011;4030;52.362;9.206;2023-02-01T13:52:34;1.90;;;0.90;;
7969;SDS011;4030;52.362;9.206;2023-02-01T13:57:40;1.60;;;0.97;;
7969;SDS011;4030;52.362;9.206;2023-02-01T14:00:23;1.83;;;0.83;;
7969;SDS011;4030;52.362;9.206;2023-02-01T14:16:10;1.33;;;0.80;;
7969;SDS011;4030;52.362;9.206;2023-02-01T14:21:12;0.97;;;0.60;;
7969;SDS011;4030;52.362;9.206;2023-02-01T14:26:19;0.90;;;0.50;;
7969;SDS011;4030;52.362;9.206;2023-02-01T14:32:03;1.20;;;0.50;;
7969;SDS011;4030;52.362;9.206;2023-02-01T14:47:44;0.50;;;0.50;;
7969;SDS011;4030;52.362;9.206;2023-02-01T14:50:27;0.67;;;0.50;;
7969;SDS011;4030;52.362;9.206;2023-02-01T14:53:11;1.27;;;0.63;;
7969;SDS011;4030;52.362;9.206;2023-02-01T15:09:23;1.27;;;0.73;;
7969;SDS011;4030;52.362;9.206;2023-02-01T15:17:27;3.00;;;1.37;;
7969;SDS011;4030;52.362;9.206;2023-02-01T15:20:14;3.30;;;1.50;;
7969;SDS011;4030;52.362;9.206;2023-02-01T15:23:16;4.47;;;1.80;;
7969;SDS011;4030;52.362;9.206;2023-02-01T15:25:44;2.83;;;1.70;;
7969;SDS011;4030;52.362;9.206;2023-02-01T15:28:15;4.63;;;1.87;;
7969;SDS011;4030;52.362;9.206;2023-02-01T15:30:51;4.73;;;2.17;;
7969;SDS011;4030;52.362;9.206;2023-02-01T15:33:20;4.37;;;2.17;;
7969;SDS011;4030;52.362;9.206;2023-02-01T15:35:49;4.30;;;2.33;;
7969;SDS011;4030;52.362;9.206;2023-02-01T15:43:29;4.33;;;2.60;;
7969;SDS011;4030;52.362;9.206;2023-02-01T15:46:02;4.90;;;2.40;;
7969;SDS011;4030;52.362;9.206;2023-02-01T15:48:41;6.73;;;2.40;;
7969;SDS011;4030;52.362;9.206;2023-02-01T15:51:20;5.13;;;2.33;;
7969;SDS011;4030;52.362;9.206;2023-02-01T15:53:53;6.73;;;2.97;;
7969;SDS011;4030;52.362;9.206;2023-02-01T15:56:36;4.47;;;2.47;;
7969;SDS011;4030;52.362;9.206;2023-02-01T15:59:06;3.47;;;2.07;;
7969;SDS011;4030;52.362;9.206;2023-02-01T16:01:43;4.30;;;2.00;;
7969;SDS011;4030;52.362;9.206;2023-02-01T16:04:22;4.13;;;2.03;;
7969;SDS011;4030;52.362;9.206;2023-02-01T16:06:59;3.93;;;2.17;;
7969;SDS011;4030;52.362;9.206;2023-02-01T16:09:48;4.83;;;2.03;;
7969;SDS011;4030;52.362;9.206;2023-02-01T16:14:58;3.53;;;1.90;;
7969;SDS011;4030;52.362;9.206;2023-02-01T16:17:25;3.73;;;1.80;;
7969;SDS011;4030;52.362;9.206;2023-02-01T16:19:50;3.80;;;1.87;;
7969;SDS011;4030;52.362;9.206;2023-02-01T16:22:16;7.10;;;2.00;;
7969;SDS011;4030;52.362;9.206;2023-02-01T16:24:42;4.93;;;1.80;;
7969;SDS011;4030;52.362;9.206;2023-02-01T16:27:09;3.57;;;1.53;;
7969;SDS011;4030;52.362;9.206;2023-02-01T16:29:35;3.63;;;1.43;;
7969;SDS011;4030;52.362;9.206;2023-02-01T16:32:01;3.50;;;1.40;;
7969;SDS011;4030;52.362;9.206;2023-02-01T16:34:28;3.90;;;1.90;;
7969;SDS011;4030;52.362;9.206;2023-02-01T16:36:54;6.20;;;1.63;;
7969;SDS011;4030;52.362;9.206;2023-02-01T16:39:22;5.13;;;1.87;;
7969;SDS011;4030;52.362;9.206;2023-02-01T16:41:48;4.40;;;1.50;;
7969;SDS011;4030;52.362;9.206;2023-02-01T16:44:14;4.23;;;1.70;;
7969;SDS011;4030;52.362;9.206;2023-02-01T16:46:41;4.13;;;1.90;;
7969;SDS011;4030;52.362;9.206;2023-02-01T16:49:16;5.80;;;1.80;;
7969;SDS011;4030;52.362;9.206;2023-02-01T16:51:49;4.83;;;1.73;;
7969;SDS011;4030;52.362;9.206;2023-02-01T16:54:17;5.10;;;1.50;;
7969;SDS011;4030;52.362;9.206;2023-02-01T16:56:44;3.67;;;1.57;;
7969;SDS011;4030;52.362;9.206;2023-02-01T16:59:11;5.50;;;1.73;;
7969;SDS011;4030;52.362;9.206;2023-02-01T17:01:37;3.73;;;1.70;;
7969;SDS011;4030;52.362;9.206;2023-02-01T17:04:03;2.60;;;1.40;;
7969;SDS011;4030;52.362;9.206;2023-02-01T17:06:30;5.83;;;1.60;;
7969;SDS011;4030;52.362;9.206;2023-02-01T17:08:57;5.40;;;1.63;;
7969;SDS011;4030;52.362;9.206;2023-02-01T17:11:24;6.73;;;1.77;;
7969;SDS011;4030;52.362;9.206;2023-02-01T17:13:51;5.43;;;1.83;;
7969;SDS011;4030;52.362;9.206;2023-02-01T17:18:44;4.80;;;1.90;;
7969;SDS011;4030;52.362;9.206;2023-02-01T17:21:22;5.17;;;1.63;;
7969;SDS011;4030;52.362;9.206;2023-02-01T17:23:48;3.47;;;1.40;;
7969;SDS011;4030;52.362;9.206;2023-02-01T17:26:14;6.07;;;1.83;;
7969;SDS011;4030;52.362;9.206;2023-02-01T17:28:40;5.43;;;1.80;;
7969;SDS011;4030;52.362;9.206;2023-02-01T17:31:07;5.93;;;1.90;;
7969;SDS011;4030;52.362;9.206;2023-02-01T17:33:37;5.77;;;1.80;;
7969;SDS011;4030;52.362;9.206;2023-02-01T17:36:03;6.57;;;2.17;;
7969;SDS011;4030;52.362;9.206;2023-02-01T17:38:31;7.30;;;2.20;;
7969;SDS011;4030;52.362;9.206;2023-02-01T17:40:58;4.37;;;2.10;;
7969;SDS011;4030;52.362;9.206;2023-02-01T17:43:25;8.70;;;1.83;;
7969;SDS011;4030;52.362;9.206;2023-02-01T17:45:53;6.27;;;2.10;;
7969;SDS011;4030;52.362;9.206;2023-02-01T17:48:30;5.50;;;1.70;;
7969;SDS011;4030;52.362;9.206;2023-02-01T17:50:55;8.00;;;2.30;;
7969;SDS011;4030;52.362;9.206;2023-02-01T17:53:25;7.87;;;2.10;;
7969;SDS011;4030;52.362;9.206;2023-02-01T17:55:51;5.53;;;2.30;;
7969;SDS011;4030;52.362;9.206;2023-02-01T17:58:17;8.10;;;1.80;;
7969;SDS011;4030;52.362;9.206;2023-02-01T18:00:44;7.90;;;2.13;;
7969;SDS011;4030;52.362;9.206;2023-02-01T18:03:20;5.40;;;1.97;;
7969;SDS011;4030;52.362;9.206;2023-02-01T18:05:55;5.30;;;2.00;;
7969;SDS011;4030;52.362;9.206;2023-02-01T18:08:23;5.67;;;2.03;;
7969;SDS011;4030;52.362;9.206;2023-02-01T18:10:51;7.50;;;2.07;;
7969;SDS011;4030;52.362;9.206;2023-02-01T18:13:26;5.43;;;1.90;;
7969;SDS011;4030;52.362;9.206;2023-02-01T18:15:52;6.10;;;1.97;;
7969;SDS011;4030;52.362;9.206;2023-02-01T18:18:19;6.00;;;2.03;;
7969;SDS011;4030;52.362;9.206;2023-02-01T18:20:45;5.37;;;1.83;;
7969;SDS011;4030;52.362;9.206;2023-02-01T18:23:17;5.70;;;2.03;;
7969;SDS011;4030;52.362;9.206;2023-02-01T18:25:46;7.93;;;2.27;;
7969;SDS011;4030;52.362;9.206;2023-02-01T18:28:12;7.77;;;2.17;;